Time;durP1;ratioP1;P1;durP2;ratioP2;P2;SDS_P1;SDS_P2;PMS_P1;PMS_P2;Temp;Humidity;BMP_temperature;BMP_pressure;BME280_temperature;BME280_humidity;BME280_pressure;Samples;Min_cycle;Max_cycle;Signal;HPM_P1;HPM_P2
2022/03/02 00:00:34;;;;;;;32.15;16.33;;;;;;;-3.28;81.55;99680.78;4188837;28;20380;-72
2022/03/02 00:02:35;;;;;;;27.02;15.23;;;;;;;-3.22;80.88;99690.56;4203241;28;20492;-72
2022/03/02 00:04:35;;;;;;;27.08;14.27;;;;;;;-3.25;80.72;99682.94;4196543;28;20136;-72
2022/03/02 00:06:36;;;;;;;21.65;13.40;;;;;;;-3.27;79.89;99694.03;4186656;28;20587;-72
2022/03/02 00:08:36;;;;;;;21.65;11.65;;;;;;;-3.32;79.72;99687.75;4187739;28;20029;-72
2022/03/02 00:10:37;;;;;;;24.98;12.60;;;;;;;-3.35;79.45;99683.69;4203712;28;20046;-72
2022/03/02 00:12:37;;;;;;;22.88;12.38;;;;;;;-3.38;79.27;99686.91;4192006;28;20094;-72
2022/03/02 00:14:38;;;;;;;22.00;11.50;;;;;;;-3.47;80.21;99675.75;4196566;28;20098;-72
2022/03/02 00:16:38;;;;;;;25.83;11.98;;;;;;;-3.55;80.68;99667.28;4186741;28;20044;-72
2022/03/02 00:18:39;;;;;;;24.63;12.48;;;;;;;-3.54;80.40;99671.63;4187374;28;20043;-72
2022/03/02 00:20:40;;;;;;;20.88;10.93;;;;;;;-3.60;81.24;99673.44;4187168;28;20075;-72
2022/03/02 00:22:40;;;;;;;20.15;11.30;;;;;;;-3.65;81.43;99669.88;4187564;28;20052;-72
2022/03/02 00:24:41;;;;;;;20.25;11.10;;;;;;;-3.71;81.70;99677.13;4187716;28;20477;-72
2022/03/02 00:26:41;;;;;;;19.90;11.60;;;;;;;-3.79;81.94;99673.00;4202101;28;20543;-72
2022/03/02 00:28:42;;;;;;;18.50;10.88;;;;;;;-3.85;82.39;99676.72;4203028;28;20071;-72
2022/03/02 00:30:42;;;;;;;21.08;10.95;;;;;;;-3.89;82.47;99674.75;4187032;28;20049;-72
2022/03/02 00:32:43;;;;;;;33.53;15.73;;;;;;;-3.86;82.91;99674.28;4187128;28;20055;-72
2022/03/02 00:34:43;;;;;;;34.33;16.05;;;;;;;-3.88;82.07;99668.31;4193957;28;20460;-71
2022/03/02 00:36:44;;;;;;;42.05;20.20;;;;;;;-3.91;82.40;99664.22;4202402;28;20093;-71
2022/03/02 00:38:44;;;;;;;48.13;20.90;;;;;;;-3.90;82.72;99662.31;4194372;28;20090;-71
2022/03/02 00:40:44;;;;;;;66.40;28.20;;;;;;;-3.89;82.33;99664.75;4186838;28;20431;-71
2022/03/02 00:42:45;;;;;;;50.35;25.67;;;;;;;-3.88;82.87;99668.31;4187294;28;20044;-71
2022/03/02 00:44:45;;;;;;;40.88;19.65;;;;;;;-3.89;82.63;99663.94;4186327;28;20056;-71
2022/03/02 00:46:46;;;;;;;48.35;22.63;;;;;;;-3.84;82.14;99672.13;4186194;28;20140;-71
2022/03/02 00:48:47;;;;;;;53.20;25.02;;;;;;;-3.84;80.69;99672.13;4186730;28;20087;-72
2022/03/02 00:50:47;;;;;;;71.57;31.30;;;;;;;-3.86;81.62;99672.38;4191576;28;20036;-72
2022/03/02 00:52:48;;;;;;;46.08;21.15;;;;;;;-3.91;82.96;99666.91;4201262;28;20044;-72
2022/03/02 00:54:48;;;;;;;29.42;14.20;;;;;;;-3.92;83.58;99667.19;4199092;28;20460;-71
2022/03/02 00:56:50;;;;;;;22.13;12.07;;;;;;;-3.94;83.52;99670.13;4186440;28;20555;-71
2022/03/02 00:58:50;;;;;;;24.40;12.70;;;;;;;-3.96;84.20;99664.19;4193701;28;20089;-71
2022/03/02 01:00:50;;;;;;;23.17;12.38;;;;;;;-3.98;84.78;99666.28;4198284;28;20055;-72
2022/03/02 01:02:51;;;;;;;16.42;10.65;;;;;;;-4.02;85.38;99665.19;4187056;28;20635;-72
2022/03/02 01:04:51;;;;;;;19.45;10.98;;;;;;;-3.98;84.92;99667.09;4186844;28;20084;-72
2022/03/02 01:06:52;;;;;;;20.80;9.60;;;;;;;-3.98;84.77;99663.59;4198840;28;20066;-72
2022/03/02 01:08:52;;;;;;;16.27;9.52;;;;;;;-4.02;85.02;99657.88;4193007;28;20298;-72
2022/03/02 01:10:52;;;;;;;17.73;9.50;;;;;;;-4.03;84.96;99656.25;4187947;28;20048;-72
2022/03/02 01:12:53;;;;;;;17.55;9.25;;;;;;;-4.06;84.72;99645.94;4186534;28;20049;-72
2022/03/02 01:14:53;;;;;;;19.77;10.50;;;;;;;-4.08;84.58;99645.38;4186311;28;20437;-72
2022/03/02 01:16:53;;;;;;;17.83;10.45;;;;;;;-4.08;85.35;99639.16;4185999;28;20133;-72
2022/03/02 01:18:54;;;;;;;20.13;11.68;;;;;;;-4.04;84.94;99637.59;4186484;28;20054;-72
2022/03/02 01:20:54;;;;;;;17.60;9.88;;;;;;;-4.07;85.94;99624.56;4186406;28;20048;-72
2022/03/02 01:22:54;;;;;;;20.52;11.35;;;;;;;-4.06;85.95;99634.31;4186530;28;20044;-72
2022/03/02 01:24:55;;;;;;;16.83;10.02;;;;;;;-4.07;86.04;99630.78;4186470;28;20041;-72
2022/03/02 01:26:55;;;;;;;16.35;10.07;;;;;;;-4.06;86.54;99635.13;4185771;28;20055;-72
2022/03/02 01:28:56;;;;;;;16.95;10.23;;;;;;;-4.07;86.72;99630.78;4186750;28;20037;-72
2022/03/02 01:30:56;;;;;;;17.10;10.98;;;;;;;-4.04;86.41;99633.00;4186733;28;20472;-72
2022/03/02 01:32:57;;;;;;;17.67;10.38;;;;;;;-4.06;86.99;99628.91;4186581;28;20631;-72
2022/03/02 01:34:57;;;;;;;19.98;11.13;;;;;;;-4.04;87.04;99622.19;4186492;28;20406;-72
2022/03/02 01:36:58;;;;;;;17.50;10.15;;;;;;;-4.02;86.64;99620.03;4195233;28;20048;-71
2022/03/02 01:38:58;;;;;;;22.08;12.00;;;;;;;-4.01;86.51;99623.56;4188307;28;20627;-71
2022/03/02 01:40:58;;;;;;;21.45;10.95;;;;;;;-4.02;86.47;99621.94;4186120;28;20040;-71
2022/03/02 01:42:59;;;;;;;17.20;10.95;;;;;;;-3.97;86.34;99611.19;4186216;28;20359;-71
2022/03/02 01:45:01;;;;;;;19.48;10.48;;;;;;;-3.94;86.23;99613.34;4186229;28;20129;-71
2022/03/02 01:47:03;;;;;;;18.73;10.27;;;;;;;-3.92;85.97;99605.00;4185706;28;20099;-71
2022/03/02 01:49:05;;;;;;;22.55;10.98;;;;;;;-3.91;84.77;99604.72;4186074;28;20044;-72
2022/03/02 01:51:05;;;;;;;20.38;10.98;;;;;;;-3.91;84.74;99593.09;4186325;28;20674;-72
2022/03/02 01:53:06;;;;;;;19.30;11.13;;;;;;;-3.92;85.13;99589.56;4185957;28;20036;-72
2022/03/02 01:55:08;;;;;;;22.75;11.23;;;;;;;-3.93;85.22;99587.13;4186216;28;20087;-72
2022/03/02 01:57:09;;;;;;;18.83;10.38;;;;;;;-3.91;84.79;99588.50;4185063;28;20040;-71
2022/03/02 01:59:10;;;;;;;18.95;11.00;;;;;;;-3.91;85.14;99595.81;4189652;28;20422;-72
2022/03/02 02:01:11;;;;;;;19.85;10.23;;;;;;;-3.93;85.12;99592.53;4201622;28;20032;-71
2022/03/02 02:03:12;;;;;;;20.63;10.70;;;;;;;-3.93;84.13;99592.53;4186046;28;20473;-71
2022/03/02 02:05:12;;;;;;;22.33;11.52;;;;;;;-3.94;84.59;99586.31;4186475;28;20626;-71
2022/03/02 02:07:13;;;;;;;20.42;10.25;;;;;;;-3.96;84.94;99585.78;4188749;28;20048;-71
2022/03/02 02:09:13;;;;;;;16.48;10.85;;;;;;;-3.99;84.88;99588.97;4189182;28;20110;-72
2022/03/02 02:11:14;;;;;;;21.75;11.18;;;;;;;-4.02;84.77;99574.09;4193038;28;20131;-72
2022/03/02 02:13:14;;;;;;;18.45;11.02;;;;;;;-4.04;84.54;99570.81;4193573;28;20036;-72
2022/03/02 02:15:15;;;;;;;22.33;11.38;;;;;;;-4.07;85.24;99573.22;4193989;28;20053;-72
2022/03/02 02:17:15;;;;;;;18.88;11.43;;;;;;;-4.18;84.84;99568.78;4188709;28;20387;-71
2022/03/02 02:19:15;;;;;;;21.13;10.82;;;;;;;-4.23;85.80;99572.22;4190728;28;20478;-71
2022/03/02 02:21:18;;;;;;;20.05;11.63;;;;;;;-4.26;86.61;99565.47;4193525;28;20052;-71
2022/03/02 02:23:18;;;;;;;23.05;11.85;;;;;;;-4.28;86.12;99564.09;4189142;28;20777;-71
2022/03/02 02:25:19;;;;;;;18.20;10.30;;;;;;;-4.26;86.86;99573.56;4190483;28;20083;-71
2022/03/02 02:27:19;;;;;;;17.98;10.23;;;;;;;-4.26;86.97;99567.34;4199939;28;20044;-71
2022/03/02 02:29:22;;;;;;;18.20;10.27;;;;;;;-4.29;86.59;99565.97;4204668;28;20046;-71
2022/03/02 02:31:22;;;;;;;19.77;10.48;;;;;;;-4.30;86.02;99568.94;4203463;28;20044;-71
2022/03/02 02:33:23;;;;;;;18.88;10.30;;;;;;;-4.34;86.04;99565.09;4203742;28;20045;-71
2022/03/02 02:35:25;;;;;;;17.25;10.05;;;;;;;-4.36;85.76;99567.25;4200277;28;20040;-72
2022/03/02 02:37:25;;;;;;;16.37;10.37;;;;;;;-4.38;86.28;99564.00;4188337;28;20044;-72
2022/03/02 02:39:27;;;;;;;18.38;11.10;;;;;;;-4.42;86.65;99558.25;4188987;28;20070;-72
2022/03/02 02:41:27;;;;;;;22.30;12.52;;;;;;;-4.44;87.04;99562.31;4188989;28;20047;-72
2022/03/02 02:43:27;;;;;;;20.27;10.95;;;;;;;-4.46;86.82;99562.56;4188809;28;20400;-71
2022/03/02 02:45:28;;;;;;;20.80;11.52;;;;;;;-4.52;87.63;99563.56;4188768;28;20041;-71
2022/03/02 02:47:28;;;;;;;24.05;11.73;;;;;;;-4.59;88.99;99558.34;4188134;28;20140;-71
2022/03/02 02:49:28;;;;;;;19.10;10.65;;;;;;;-4.60;89.98;99562.13;4193462;28;20050;-71
2022/03/02 02:51:29;;;;;;;21.88;11.20;;;;;;;-4.65;91.06;99551.25;4188739;28;20541;-72
2022/03/02 02:53:29;;;;;;;18.98;10.75;;;;;;;-4.69;91.51;99558.25;4188518;28;20423;-72
2022/03/02 02:55:30;;;;;;;22.02;11.45;;;;;;;-4.71;92.08;99554.97;4188561;28;20502;-72
2022/03/02 02:57:31;;;;;;;24.52;12.35;;;;;;;-4.71;92.16;99546.88;4188085;28;20060;-72
2022/03/02 02:59:31;;;;;;;20.73;11.02;;;;;;;-4.70;91.10;99547.69;4188375;28;20036;-72
2022/03/02 03:01:31;;;;;;;23.00;12.18;;;;;;;-4.68;90.02;99549.06;4188615;28;20055;-71
2022/03/02 03:03:32;;;;;;;19.77;11.57;;;;;;;-4.66;90.34;99540.69;4188395;28;20060;-71
2022/03/02 03:05:34;;;;;;;22.48;12.10;;;;;;;-4.63;88.88;99543.72;4191313;28;20258;-72
2022/03/02 03:07:34;;;;;;;19.10;11.45;;;;;;;-4.65;88.94;99540.44;4187664;28;20203;-72
2022/03/02 03:09:34;;;;;;;20.92;11.27;;;;;;;-4.67;88.78;99539.06;4189149;28;20040;-72
2022/03/02 03:11:39;;;;;;;18.25;11.63;;;;;;;-4.73;87.60;99530.09;4188876;28;20384;-72
2022/03/02 03:13:39;;;;;;;21.27;12.20;;;;;;;-4.80;88.50;99542.97;4188253;28;20376;-72
2022/03/02 03:15:40;;;;;;;20.33;11.85;;;;;;;-4.83;89.61;99538.06;4188425;28;20051;-72
2022/03/02 03:17:42;;;;;;;21.58;12.10;;;;;;;-4.82;90.03;99531.59;4187512;28;20048;-72
2022/03/02 03:19:42;;;;;;;20.80;10.85;;;;;;;-4.77;89.88;99528.16;4188437;28;20465;-72
2022/03/02 03:21:42;;;;;;;20.63;11.20;;;;;;;-4.71;89.63;99530.69;4188266;28;20075;-72
2022/03/02 03:23:43;;;;;;;21.27;11.93;;;;;;;-4.74;89.55;99522.25;4194979;28;20086;-72
2022/03/02 03:25:43;;;;;;;18.67;10.73;;;;;;;-4.84;89.04;99523.75;4194126;28;20178;-72
2022/03/02 03:27:44;;;;;;;18.20;11.45;;;;;;;-4.85;90.21;99527.53;4187422;28;20067;-72
2022/03/02 03:29:44;;;;;;;20.02;11.25;;;;;;;-4.86;90.92;99530.50;4188381;28;20962;-72
2022/03/02 03:31:45;;;;;;;18.65;10.80;;;;;;;-4.93;91.55;99530.69;4199218;28;20095;-72
2022/03/02 03:33:45;;;;;;;21.40;11.20;;;;;;;-4.98;92.01;99529.78;4202643;28;20044;-72
2022/03/02 03:35:45;;;;;;;18.35;10.30;;;;;;;-4.98;92.75;99527.09;4203682;28;20032;-72
2022/03/02 03:37:47;;;;;;;20.50;11.90;;;;;;;-4.98;91.99;99529.78;4203487;28;20044;-72
2022/03/02 03:39:47;;;;;;;18.55;11.02;;;;;;;-5.00;91.30;99531.94;4187667;28;20052;-72
2022/03/02 03:41:48;;;;;;;19.40;11.43;;;;;;;-5.03;91.67;99530.56;4188041;28;20325;-72
2022/03/02 03:43:49;;;;;;;19.17;11.20;;;;;;;-5.04;92.87;99538.91;4188160;28;20086;-72
2022/03/02 03:45:51;;;;;;;20.45;10.95;;;;;;;-5.05;92.17;99529.97;4187885;28;20037;-72
2022/03/02 03:47:53;;;;;;;22.33;10.00;;;;;;;-5.03;91.70;99529.75;4186994;28;20052;-72
2022/03/02 03:49:53;;;;;;;18.63;11.00;;;;;;;-5.07;92.15;99521.31;4187513;28;20068;-72
2022/03/02 03:51:54;;;;;;;25.10;11.63;;;;;;;-5.05;93.47;99513.78;4187831;28;20055;-72
2022/03/02 03:53:55;;;;;;;19.98;10.57;;;;;;;-5.07;93.85;99518.59;4187276;28;20043;-72
2022/03/02 03:55:55;;;;;;;16.80;10.18;;;;;;;-4.97;92.19;99520.63;4187813;28;20052;-72
2022/03/02 03:57:55;;;;;;;17.50;10.25;;;;;;;-4.92;91.26;99521.50;4187166;28;20119;-72
2022/03/02 03:59:56;;;;;;;18.48;10.40;;;;;;;-4.90;90.37;99523.94;4187461;28;20055;-72
2022/03/02 04:01:56;;;;;;;18.90;10.32;;;;;;;-4.95;89.95;99519.31;4188678;28;20049;-72
2022/03/02 04:03:57;;;;;;;22.25;10.43;;;;;;;-4.96;88.87;99533.88;4190337;28;20053;-72
2022/03/02 04:05:57;;;;;;;20.05;11.43;;;;;;;-5.03;89.08;99522.47;4187974;28;20127;-72
2022/03/02 04:07:57;;;;;;;16.90;10.15;;;;;;;-5.10;89.60;99522.63;4182525;28;20440;-72
2022/03/02 04:09:58;;;;;;;20.33;11.55;;;;;;;-5.13;90.90;99528.53;4182684;28;20040;-72
2022/03/02 04:11:58;;;;;;;20.83;10.68;;;;;;;-5.15;91.40;99524.44;4184539;28;20275;-72
2022/03/02 04:13:58;;;;;;;16.55;10.32;;;;;;;-5.19;91.41;99523.31;4182967;28;20136;-71
2022/03/02 04:15:58;;;;;;;18.77;10.68;;;;;;;-5.18;91.96;99530.34;4183767;28;20739;-71
2022/03/02 04:17:59;;;;;;;17.92;10.27;;;;;;;-5.21;92.31;99520.88;4181434;28;20347;-72
2022/03/02 04:19:59;;;;;;;19.45;10.57;;;;;;;-5.21;92.25;99523.59;4182835;28;20050;-72
2022/03/02 04:22:00;;;;;;;26.60;12.18;;;;;;;-5.16;92.56;99520.94;4183187;28;20041;-72
2022/03/02 04:24:01;;;;;;;29.70;12.15;;;;;;;-5.11;90.88;99525.59;4182004;28;20051;-73
2022/03/02 04:26:01;;;;;;;29.17;15.77;;;;;;;-5.09;90.68;99524.25;4183054;28;20116;-72
2022/03/02 04:28:02;;;;;;;25.83;14.45;;;;;;;-5.05;90.97;99521.06;4181338;28;20116;-72
2022/03/02 04:30:05;;;;;;;27.90;14.07;;;;;;;-5.01;91.00;99514.09;4184008;28;20134;-72
2022/03/02 04:32:06;;;;;;;24.00;13.73;;;;;;;-4.96;90.63;99509.59;4183209;28;20041;-72
2022/03/02 04:34:06;;;;;;;23.10;12.55;;;;;;;-4.88;89.97;99505.59;4182332;28;20028;-73
2022/03/02 04:36:06;;;;;;;22.02;12.95;;;;;;;-4.82;89.92;99500.03;4183665;28;20548;-72
2022/03/02 04:38:07;;;;;;;24.23;11.60;;;;;;;-4.79;88.96;99501.44;4181563;28;20078;-73
2022/03/02 04:40:10;;;;;;;19.58;11.45;;;;;;;-4.70;88.67;99499.91;4182401;28;20036;-72
2022/03/02 04:42:10;;;;;;;22.10;11.98;;;;;;;-4.65;88.57;99494.53;4183356;28;20421;-72
2022/03/02 04:44:11;;;;;;;23.52;12.98;;;;;;;-4.62;87.86;99502.16;4184764;28;20137;-72
2022/03/02 04:46:11;;;;;;;28.15;14.07;;;;;;;-4.64;87.90;99496.16;4184984;28;20144;-72
2022/03/02 04:48:11;;;;;;;37.53;14.40;;;;;;;-4.64;87.78;99496.16;4183810;28;20095;-72
2022/03/02 04:50:12;;;;;;;31.27;14.15;;;;;;;-4.66;88.42;99502.91;4192243;28;20494;-73
2022/03/02 04:52:13;;;;;;;25.58;12.48;;;;;;;-4.71;88.94;99492.88;4166136;28;20451;-72
2022/03/02 04:55:05;;;;;;;25.85;11.93;;;;;;;-4.69;89.40;99495.31;4188523;28;20315;-72
2022/03/02 04:56:35;;;;;;;28.52;12.65;;;;;;;-4.72;89.65;99488.50;4187888;28;20563;-72
2022/03/02 04:58:35;;;;;;;21.58;10.88;;;;;;;-4.67;89.44;99493.16;4181472;28;20040;-71
2022/03/02 05:00:36;;;;;;;24.45;12.20;;;;;;;-4.62;88.93;99482.44;4187525;28;20058;-72
2022/03/02 05:02:37;;;;;;;26.00;11.35;;;;;;;-4.59;88.39;99480.03;4190530;28;20564;-72
2022/03/02 05:04:38;;;;;;;20.25;12.00;;;;;;;-4.64;88.50;99479.97;4189741;28;20654;-72
2022/03/02 05:06:38;;;;;;;21.73;11.18;;;;;;;-4.63;89.31;99481.63;4187072;28;20378;-72
2022/03/02 05:08:38;;;;;;;21.73;11.93;;;;;;;-4.61;89.24;99471.38;4189689;28;20079;-72
2022/03/02 05:10:39;;;;;;;18.17;10.95;;;;;;;-4.58;88.91;99486.25;4190514;28;20558;-72
2022/03/02 05:12:39;;;;;;;22.17;12.70;;;;;;;-4.59;88.79;99480.03;4190935;28;20040;-72
2022/03/02 05:14:40;;;;;;;31.23;12.35;;;;;;;-4.61;89.37;99484.88;4193100;28;20072;-72
2022/03/02 05:16:40;;;;;;;21.67;11.93;;;;;;;-4.61;89.69;99479.47;4190586;28;20746;-72
2022/03/02 05:18:44;;;;;;;24.80;13.32;;;;;;;-4.61;89.86;99476.78;4189056;28;20064;-72
2022/03/02 05:20:44;;;;;;;30.50;14.48;;;;;;;-4.56;89.96;99484.09;4192444;28;20211;-72
2022/03/02 05:22:45;;;;;;;25.42;12.82;;;;;;;-4.56;89.36;99484.09;4191174;28;20036;-72
2022/03/02 05:24:46;;;;;;;27.63;15.38;;;;;;;-4.53;90.08;99483.59;4191673;28;20692;-72
2022/03/02 05:26:46;;;;;;;28.42;14.80;;;;;;;-4.50;89.33;99483.09;4190222;28;20185;-72
2022/03/02 05:28:47;;;;;;;28.63;15.02;;;;;;;-4.50;89.33;99480.38;4190446;28;20036;-72
2022/03/02 05:30:47;;;;;;;43.00;19.38;;;;;;;-4.47;89.65;99477.16;4191313;28;20029;-72
2022/03/02 05:32:48;;;;;;;80.82;31.58;;;;;;;-4.46;89.73;99475.31;4192698;28;20032;-72
2022/03/02 05:34:48;;;;;;;80.55;31.83;;;;;;;-4.47;89.52;99477.16;4184889;28;20052;-71
2022/03/02 05:36:49;;;;;;;82.78;29.13;;;;;;;-4.47;89.75;99479.84;4196893;28;20032;-71
2022/03/02 05:38:49;;;;;;;66.55;25.52;;;;;;;-4.44;90.06;99483.97;4185984;28;20056;-71
2022/03/02 05:40:50;;;;;;;44.78;19.23;;;;;;;-4.44;89.88;99483.97;4186474;28;20040;-71
2022/03/02 05:42:51;;;;;;;38.10;18.92;;;;;;;-4.44;90.48;99486.66;4186722;28;20044;-72
2022/03/02 05:44:51;;;;;;;37.70;17.98;;;;;;;-4.43;90.75;99480.19;4185978;28;20392;-72
2022/03/02 05:46:51;;;;;;;37.40;16.08;;;;;;;-4.45;91.07;99479.63;4185652;28;20040;-72
2022/03/02 05:48:52;;;;;;;44.20;16.95;;;;;;;-4.38;90.02;99488.34;4186239;28;20061;-72
2022/03/02 05:50:52;;;;;;;35.17;15.35;;;;;;;-4.38;90.01;99475.66;4185740;28;20473;-72
2022/03/02 05:52:53;;;;;;;30.98;15.30;;;;;;;-4.30;88.63;99479.78;4186100;28;20076;-72
2022/03/02 05:54:53;;;;;;;36.97;15.32;;;;;;;-4.28;88.94;99483.84;4186055;28;20489;-72
2022/03/02 05:56:53;;;;;;;33.20;16.35;;;;;;;-4.24;88.66;99481.44;4125777;28;20118;-72
2022/03/02 05:58:54;;;;;;;35.75;17.42;;;;;;;-4.19;87.36;99475.28;4185734;28;20047;-72
2022/03/02 06:00:56;;;;;;;41.40;18.83;;;;;;;-4.18;87.34;99483.13;4186295;28;20084;-72
2022/03/02 06:02:56;;;;;;;40.22;16.90;;;;;;;-4.13;87.46;99485.06;4186550;28;20040;-72
2022/03/02 06:04:56;;;;;;;32.92;16.75;;;;;;;-4.11;87.27;99481.00;4185458;28;20040;-72
2022/03/02 06:06:57;;;;;;;35.83;16.48;;;;;;;-4.09;86.21;99489.69;4187795;28;20141;-72
2022/03/02 06:08:57;;;;;;;28.92;15.18;;;;;;;-4.08;86.60;99475.09;4189748;28;20045;-72
2022/03/02 06:10:57;;;;;;;32.28;14.48;;;;;;;-4.07;86.57;99481.31;4186617;28;20133;-71
2022/03/02 06:12:58;;;;;;;23.75;12.88;;;;;;;-4.08;86.73;99482.38;4191919;28;20047;-71
2022/03/02 06:14:59;;;;;;;22.13;12.10;;;;;;;-4.06;86.63;99481.03;4186509;28;20053;-71
2022/03/02 06:16:59;;;;;;;18.58;11.93;;;;;;;-4.03;85.92;99483.25;4184598;28;20464;-71
2022/03/02 06:19:00;;;;;;;29.17;11.63;;;;;;;-4.05;85.68;99473.78;4193780;28;20093;-71
2022/03/02 06:21:01;;;;;;;17.92;10.35;;;;;;;-4.02;85.25;99482.16;4191721;28;20091;-72
2022/03/02 06:23:02;;;;;;;20.10;9.88;;;;;;;-4.01;84.89;99485.69;4185917;28;20404;-72
2022/03/02 06:25:04;;;;;;;18.63;10.07;;;;;;;-4.00;84.91;99488.13;4185666;28;20045;-72
2022/03/02 06:27:05;;;;;;;18.45;9.93;;;;;;;-4.06;85.87;99485.63;4185377;28;20037;-72
2022/03/02 06:29:05;;;;;;;19.13;10.57;;;;;;;-4.09;87.56;99491.56;4185864;28;20277;-72
2022/03/02 06:31:05;;;;;;;18.48;10.20;;;;;;;-4.17;88.40;99497.44;4185605;28;20562;-72
2022/03/02 06:33:07;;;;;;;17.90;10.38;;;;;;;-4.22;88.31;99498.19;4185583;28;20080;-72
2022/03/02 06:35:08;;;;;;;16.38;9.82;;;;;;;-4.26;88.42;99499.78;4185553;28;20399;-72
2022/03/02 06:37:09;;;;;;;17.83;10.07;;;;;;;-4.29;89.19;99501.13;4185137;28;20048;-72
2022/03/02 06:39:09;;;;;;;17.33;10.13;;;;;;;-4.26;89.52;99503.31;4185750;28;20161;-72
2022/03/02 06:41:44;;;;;;;17.27;10.05;;;;;;;-4.22;88.81;99500.09;4185758;28;20102;-72
2022/03/02 06:44:28;;;;;;;17.58;9.98;;;;;;;-4.23;88.97;99507.38;4189999;28;20044;-72
2022/03/02 06:46:58;;;;;;;18.08;9.60;;;;;;;-4.20;89.47;99501.47;4189677;28;20045;-72
2022/03/02 06:49:09;;;;;;;20.13;9.57;;;;;;;-4.17;88.59;99498.25;4181395;28;20623;-72
2022/03/02 06:51:13;;;;;;;18.27;9.98;;;;;;;-4.12;88.22;99492.09;4185492;28;20087;-72
2022/03/02 06:53:15;;;;;;;20.60;9.93;;;;;;;-4.08;87.64;99499.41;4192841;28;20430;-72
2022/03/02 06:55:17;;;;;;;15.63;9.85;;;;;;;-4.07;87.65;99495.63;4185963;28;20120;-72
2022/03/02 06:57:19;;;;;;;17.58;9.27;;;;;;;-4.06;88.20;99499.97;4184773;28;20056;-72
2022/03/02 06:59:30;;;;;;;20.38;9.43;;;;;;;-4.04;88.16;99505.94;4185779;28;20052;-72
2022/03/02 07:01:32;;;;;;;18.05;8.65;;;;;;;-4.02;88.41;99506.50;4185553;28;20074;-72
2022/03/02 07:03:36;;;;;;;17.73;10.23;;;;;;;-4.02;89.21;99509.19;4187320;28;20483;-72
2022/03/02 07:05:39;;;;;;;14.35;8.45;;;;;;;-4.03;89.37;99525.69;4187540;28;20128;-72
2022/03/02 07:07:39;;;;;;;20.02;9.45;;;;;;;-4.02;88.51;99519.19;4188845;28;20067;-71
2022/03/02 07:09:40;;;;;;;17.38;8.90;;;;;;;-3.97;88.40;99521.97;4189061;28;20052;-72
2022/03/02 07:11:42;;;;;;;17.48;9.45;;;;;;;-3.97;88.24;99517.38;4188417;28;20064;-72
2022/03/02 07:13:44;;;;;;;18.73;10.63;;;;;;;-3.90;87.46;99519.03;4202167;28;20490;-72
2022/03/02 07:15:46;;;;;;;21.25;9.68;;;;;;;-3.88;87.08;99512.31;4203789;28;20032;-72
2022/03/02 07:17:46;;;;;;;17.58;9.73;;;;;;;-3.85;86.12;99508.25;4201869;28;20063;-72
2022/03/02 07:19:47;;;;;;;16.45;9.45;;;;;;;-3.79;86.06;99508.03;4198643;28;20048;-72
2022/03/02 07:21:50;;;;;;;20.58;10.40;;;;;;;-3.72;86.04;99508.63;4210308;28;20071;-72
2022/03/02 07:23:56;;;;;;;17.75;9.65;;;;;;;-3.69;85.64;99518.94;4203522;28;20063;-72
2022/03/02 07:25:59;;;;;;;16.63;9.57;;;;;;;-3.69;85.24;99512.69;4201941;28;20036;-72
2022/03/02 07:27:59;;;;;;;;;;;;;;;-3.65;85.96;99513.00;4188193;28;20049;-71
2022/03/02 07:30:01;;;;;;;20.67;10.77;;;;;;;-3.64;86.08;99515.47;4188642;28;19912;-71
2022/03/02 07:32:03;;;;;;;17.73;10.93;;;;;;;-3.61;86.48;99517.63;4187561;28;20032;-72
2022/03/02 07:34:06;;;;;;;23.83;11.70;;;;;;;-3.59;85.98;99511.97;4188115;28;20067;-72
2022/03/02 07:36:08;;;;;;;19.35;10.45;;;;;;;-3.53;85.63;99517.16;4200714;28;20032;-72
2022/03/02 07:38:08;;;;;;;17.27;11.23;;;;;;;-3.46;85.72;99519.63;4202809;28;20028;-72
2022/03/02 07:40:10;;;;;;;17.48;9.65;;;;;;;-3.43;85.78;99508.28;4201927;28;20032;-72
2022/03/02 07:42:11;;;;;;;;;;;;;;;-3.37;85.69;99512.66;4193178;28;20040;-72
2022/03/02 07:44:16;;;;;;;17.40;9.85;;;;;;;-3.31;85.92;99516.19;4187184;28;20512;-72
2022/03/02 07:46:16;;;;;;;21.55;9.80;;;;;;;-3.27;85.22;99514.59;4185799;28;20115;-72
2022/03/02 07:48:17;;;;;;;16.88;9.90;;;;;;;-3.20;85.25;99509.78;4186895;28;20044;-72
2022/03/02 07:50:17;;;;;;;25.30;12.50;;;;;;;-3.18;85.56;99519.25;4186254;28;20076;-72
2022/03/02 07:52:24;;;;;;;28.38;17.25;;;;;;;-3.11;85.83;99519.00;4187384;28;20512;-72
2022/03/02 07:54:28;;;;;;;34.28;16.05;;;;;;;-3.08;86.11;99513.06;4190310;28;20040;-72
2022/03/02 07:56:30;;;;;;;27.13;14.57;;;;;;;-3.03;85.74;99504.97;4196998;28;20028;-72
2022/03/02 07:58:31;;;;;;;27.75;13.73;;;;;;;-2.97;86.11;99514.75;4184501;28;20050;-72
2022/03/02 08:00:31;;;;;;;23.48;13.00;;;;;;;-2.91;85.34;99512.88;4186322;28;20381;-72
2022/03/02 08:02:32;;;;;;;23.05;13.35;;;;;;;-2.88;85.65;99513.16;4185285;28;20127;-72
2022/03/02 08:04:35;;;;;;;21.63;11.73;;;;;;;-2.79;85.93;99513.47;4187210;28;20060;-72
2022/03/02 08:06:38;;;;;;;23.13;12.45;;;;;;;-2.75;85.31;99517.25;4185148;28;20109;-72
2022/03/02 08:08:42;;;;;;;24.77;11.85;;;;;;;-2.68;84.71;99508.91;4197938;28;20070;-72
2022/03/02 08:10:44;;;;;;;26.75;15.32;;;;;;;-2.60;84.58;99505.66;4189675;28;20046;-72
2022/03/02 08:12:45;;;;;;;24.67;12.30;;;;;;;-2.56;84.20;99502.19;4186015;28;20973;-72
2022/03/02 08:14:46;;;;;;;23.40;12.13;;;;;;;-2.52;83.57;99504.34;4185678;28;20040;-72
2022/03/02 08:16:46;;;;;;;19.67;11.70;;;;;;;-2.47;84.11;99512.50;4186648;28;20436;-72
2022/03/02 08:18:47;;;;;;;23.90;11.70;;;;;;;-2.43;83.48;99506.25;4187407;28;20029;-72
2022/03/02 08:20:49;;;;;;;24.63;12.15;;;;;;;-2.36;83.35;99501.41;4191892;28;20044;-72
2022/03/02 08:22:51;;;;;;;24.27;12.68;;;;;;;-2.32;82.31;99497.09;4186796;28;20045;-72
2022/03/02 08:25:10;;;;;;;31.15;12.98;;;;;;;-2.22;82.35;99503.59;4187625;28;20047;-71
2022/03/02 08:27:13;;;;;;;26.63;13.68;;;;;;;-2.13;82.24;99496.56;4185973;28;20045;-72
2022/03/02 08:29:13;;;;;;;21.48;12.27;;;;;;;-2.06;81.03;99491.69;4187198;28;20036;-72
2022/03/02 08:31:14;;;;;;;19.38;10.68;;;;;;;-1.98;79.21;99483.81;4187294;28;20052;-71
2022/03/02 08:33:25;;;;;;;19.00;10.82;;;;;;;-1.92;78.59;99487.31;4190098;28;20032;-71
2022/03/02 08:35:27;;;;;;;15.13;9.38;;;;;;;-1.83;78.06;99490.31;4188394;28;20137;-71
2022/03/02 08:37:29;;;;;;;19.05;9.77;;;;;;;-1.79;78.30;99491.41;4189765;28;20051;-71
2022/03/02 08:39:30;;;;;;;17.20;9.80;;;;;;;-1.77;77.54;99486.50;4192535;28;20075;-71
2022/03/02 08:41:31;;;;;;;17.52;9.15;;;;;;;-1.74;77.74;99481.38;4187010;28;20045;-71
2022/03/02 08:43:34;;;;;;;19.10;10.45;;;;;;;-1.68;77.72;99487.59;4192134;28;20495;-71
2022/03/02 08:45:35;;;;;;;21.48;10.10;;;;;;;-1.64;76.92;99471.59;4188552;28;20048;-71
2022/03/02 08:47:35;;;;;;;15.38;9.30;;;;;;;-1.60;77.08;99480.78;4185700;28;20480;-71
2022/03/02 08:49:35;;;;;;;22.30;11.02;;;;;;;-1.54;75.85;99482.41;4186450;28;20102;-71
2022/03/02 08:51:39;;;;;;;18.02;10.18;;;;;;;-1.52;76.44;99475.63;4203756;28;20089;-71
2022/03/02 08:53:40;;;;;;;18.25;10.43;;;;;;;-1.45;75.64;99476.16;4191892;28;20199;-71
2022/03/02 08:55:42;;;;;;;21.67;12.90;;;;;;;-1.40;76.10;99474.53;4187287;28;20127;-71
2022/03/02 08:57:43;;;;;;;19.67;10.63;;;;;;;-1.34;76.03;99471.50;4185511;28;20098;-71
2022/03/02 08:59:44;;;;;;;22.77;11.52;;;;;;;-1.28;77.26;99475.03;4186675;28;20136;-71
2022/03/02 09:01:53;;;;;;;18.25;11.27;;;;;;;-1.24;77.10;99471.50;4192147;28;20344;-71
2022/03/02 09:03:58;;;;;;;17.95;11.88;;;;;;;-1.19;76.02;99468.75;4190749;28;20449;-71
2022/03/02 09:06:00;;;;;;;27.38;14.95;;;;;;;-1.18;75.74;99467.66;4187863;28;20334;-71
2022/03/02 09:08:01;;;;;;;27.08;14.82;;;;;;;-1.12;75.69;99460.31;4195799;28;20044;-72
2022/03/02 09:10:03;;;;;;;22.42;13.38;;;;;;;-1.08;75.66;99466.81;4191226;28;20032;-71
2022/03/02 09:12:04;;;;;;;26.10;13.73;;;;;;;-1.03;75.84;99464.06;4191535;28;20036;-71
2022/03/02 09:14:04;;;;;;;25.55;14.00;;;;;;;-0.95;75.41;99470.84;4190246;28;20039;-71
2022/03/02 09:16:06;;;;;;;25.40;12.82;;;;;;;-0.91;74.74;99463.75;4186534;28;20036;-71
2022/03/02 09:18:07;;;;;;;21.17;11.35;;;;;;;-0.89;74.83;99459.69;4187376;28;20387;-71
2022/03/02 09:20:09;;;;;;;25.08;12.95;;;;;;;-0.82;74.91;99462.09;4189312;28;20103;-71